Time;durP1;ratioP1;P1;durP2;ratioP2;P2;SDS_P1;SDS_P2;PMS_P1;PMS_P2;Temp;Humidity;BMP_temperature;BMP_pressure;BME280_temperature;BME280_humidity;BME280_pressure;Samples;Min_cycle;Max_cycle;Signal;HPM_P1;HPM_P2
2023/01/02 00:01:34;;;;;;;18.42;9.57;;;13.60;99.90;;;13.92;100.00;100773.88;5093331;28;20048;-69
2023/01/02 00:04:02;;;;;;;16.48;10.35;;;13.60;99.90;;;13.88;100.00;100781.03;5093523;28;20048;-69
2023/01/02 00:06:34;;;;;;;18.02;9.93;;;13.60;99.90;;;13.87;100.00;100771.31;5093170;28;20067;-69
2023/01/02 00:09:04;;;;;;;17.15;9.70;;;13.60;99.90;;;13.83;100.00;100771.41;5093154;28;20052;-69
2023/01/02 00:11:33;;;;;;;17.67;9.38;;;13.60;99.90;;;13.75;100.00;100768.00;5092878;28;20490;-69
2023/01/02 00:14:02;;;;;;;20.15;9.63;;;13.50;99.90;;;13.74;100.00;100748.53;5092894;28;20052;-69
2023/01/02 00:16:30;;;;;;;14.68;9.35;;;13.50;99.90;;;13.77;100.00;100764.41;5093383;28;20132;-69
2023/01/02 00:18:58;;;;;;;20.90;9.65;;;13.50;99.90;;;13.78;100.00;100742.22;5093293;28;20040;-69
2023/01/02 00:21:27;;;;;;;21.65;9.57;;;13.50;99.90;;;13.79;100.00;100756.41;5092769;28;20048;-69
2023/01/02 00:23:55;;;;;;;21.33;9.70;;;13.50;99.90;;;13.76;100.00;100753.81;5092740;28;20493;-69
2023/01/02 00:26:24;;;;;;;19.98;10.40;;;13.50;99.90;;;13.77;100.00;100752.91;5092739;28;20067;-69
2023/01/02 00:28:55;;;;;;;20.33;10.63;;;13.50;99.90;;;13.74;100.00;100761.84;5093054;28;20135;-69
2023/01/02 00:31:23;;;;;;;22.17;11.00;;;13.50;99.90;;;13.87;100.00;100749.16;5092972;28;20101;-69
2023/01/02 00:33:51;;;;;;;22.05;10.85;;;13.60;99.90;;;13.91;100.00;100748.19;5074932;28;20401;-69
2023/01/02 00:36:20;;;;;;;20.88;11.60;;;13.60;99.90;;;13.91;100.00;100748.19;5092908;28;20054;-69
2023/01/02 00:38:49;;;;;;;18.70;10.63;;;13.60;99.90;;;13.92;100.00;100745.50;5092636;28;20040;-69
2023/01/02 00:41:17;;;;;;;17.38;10.13;;;13.60;99.90;;;13.93;100.00;100751.72;5092775;28;20037;-69
2023/01/02 00:43:46;;;;;;;20.10;10.75;;;13.60;99.90;;;13.92;100.00;100750.81;5092592;28;20056;-69
2023/01/02 00:46:17;;;;;;;17.10;10.52;;;13.60;99.90;;;13.93;100.00;100751.72;5092801;28;20048;-69
2023/01/02 00:48:46;;;;;;;14.98;9.80;;;13.60;99.90;;;13.98;100.00;100749.81;5094706;28;20130;-69
2023/01/02 00:51:14;;;;;;;18.55;10.48;;;13.70;99.90;;;13.87;100.00;100733.22;5096303;28;20044;-69
2023/01/02 00:53:42;;;;;;;18.92;10.20;;;13.60;99.90;;;13.94;100.00;100738.38;5096539;28;20139;-69
2023/01/02 00:56:11;;;;;;;15.60;10.57;;;13.70;99.90;;;13.88;100.00;100743.81;5096387;28;20127;-69
2023/01/02 00:58:39;;;;;;;17.73;10.23;;;13.60;99.90;;;13.86;100.00;100736.78;5096404;28;20455;-69
2023/01/02 01:01:08;;;;;;;20.13;10.85;;;13.60;99.90;;;13.90;100.00;100730.50;5096008;28;20040;-69
2023/01/02 01:03:38;;;;;;;19.73;11.52;;;13.60;99.90;;;13.98;100.00;100726.78;5096063;28;20040;-69
2023/01/02 01:06:07;;;;;;;14.77;9.73;;;13.60;99.90;;;14.02;100.00;100722.25;5095997;28;20071;-69
2023/01/02 01:08:36;;;;;;;20.50;10.90;;;13.70;99.90;;;14.06;100.00;100711.53;5095999;28;20060;-69
2023/01/02 01:11:09;;;;;;;24.33;11.25;;;13.80;99.90;;;14.04;100.00;100717.78;5095886;28;20058;-69
2023/01/02 01:13:37;;;;;;;16.73;9.73;;;13.80;99.90;;;14.05;100.00;100709.75;5095962;28;20071;-69
2023/01/02 01:16:08;;;;;;;26.27;10.43;;;13.80;99.90;;;14.07;100.00;100701.78;5095939;28;20040;-69
2023/01/02 01:18:38;;;;;;;20.17;10.57;;;13.80;99.90;;;14.07;100.00;100693.81;5077942;28;20051;-69
2023/01/02 01:21:08;;;;;;;19.10;10.25;;;13.90;99.90;;;14.10;100.00;100712.34;5095691;28;20040;-69
2023/01/02 01:23:37;;;;;;;17.85;9.77;;;13.90;99.90;;;14.05;100.00;100709.75;5077839;28;20405;-69
2023/01/02 01:26:08;;;;;;;16.20;9.90;;;13.80;99.90;;;14.07;100.00;100696.47;5095866;28;20036;-69
2023/01/02 01:28:37;;;;;;;;;;;13.80;99.90;;;14.06;100.00;100703.56;5078225;28;20048;-69
2023/01/02 01:31:07;;;;;;;17.65;10.15;;;13.80;99.90;;;14.05;100.00;100700.94;5095551;28;20097;-69
2023/01/02 01:33:38;;;;;;;16.13;10.75;;;13.80;99.90;;;13.95;100.00;100694.06;5095786;28;20044;-69
2023/01/02 01:36:09;;;;;;;17.02;10.48;;;13.80;99.90;;;14.11;100.00;100706.97;5095765;28;20447;-68
2023/01/02 01:38:38;;;;;;;18.55;11.02;;;13.80;99.90;;;14.09;100.00;100686.66;5096012;28;20048;-69
2023/01/02 01:41:07;;;;;;;18.98;10.27;;;13.90;99.90;;;14.20;100.00;100714.78;5095522;28;20043;-69
2023/01/02 01:43:38;;;;;;;16.17;9.15;;;13.90;99.90;;;14.07;100.00;100694.66;5095576;28;20109;-69
2023/01/02 01:46:11;;;;;;;16.88;10.23;;;13.90;99.90;;;14.08;100.00;100725.69;5095502;28;20094;-69
2023/01/02 01:48:41;;;;;;;16.95;9.98;;;13.80;99.90;;;14.07;100.00;100728.38;5095505;28;20052;-69
2023/01/02 01:51:09;;;;;;;18.25;9.98;;;13.80;99.90;;;14.06;100.00;100716.84;5095394;28;20405;-69
2023/01/02 01:53:38;;;;;;;16.48;10.68;;;13.80;99.90;;;14.02;100.00;100723.13;5095341;28;20059;-69
2023/01/02 01:56:08;;;;;;;19.35;11.55;;;13.70;99.90;;;14.04;100.00;100723.09;5077182;28;20452;-69
2023/01/02 01:58:41;;;;;;;19.50;11.93;;;13.80;99.90;;;14.08;100.00;100731.00;5094974;28;20064;-69
2023/01/02 02:01:12;;;;;;;19.58;11.35;;;13.80;99.90;;;14.11;100.00;100720.28;5094046;28;20036;-69
2023/01/02 02:03:46;;;;;;;16.27;10.98;;;13.80;99.90;;;14.00;100.00;100724.97;5077283;28;20044;-70
2023/01/02 02:06:16;;;;;;;20.75;11.18;;;13.80;99.90;;;13.94;100.00;100716.22;5094814;28;20032;-69
2023/01/02 02:08:50;;;;;;;23.83;11.87;;;13.70;99.90;;;13.80;100.00;100712.97;5076617;28;20091;-69
2023/01/02 02:11:19;;;;;;;23.50;12.50;;;13.70;99.90;;;13.17;100.00;100611.47;5094790;28;20300;-68
2023/01/02 02:13:48;;;;;;;21.67;12.05;;;13.60;99.90;;;13.94;100.00;100726.84;5094630;28;20044;-68
2023/01/02 02:16:28;;;;;;;19.63;13.00;;;13.60;99.90;;;13.88;100.00;100737.63;5094879;28;20448;-69
2023/01/02 02:19:26;;;;;;;24.60;12.73;;;13.60;99.90;;;13.90;100.00;100736.69;5095195;28;20051;-68
2023/01/02 02:22:16;;;;;;;21.63;13.40;;;13.60;99.90;;;13.93;100.00;100723.34;5094401;28;20108;-69
2023/01/02 02:25:25;;;;;;;22.08;12.25;;;13.60;99.90;;;14.01;100.00;100737.38;5094513;28;20048;-68
2023/01/02 02:28:37;;;;;;;18.50;11.35;;;13.70;99.90;;;13.93;100.00;100735.75;5091424;28;20465;-69
2023/01/02 02:31:13;;;;;;;19.40;12.02;;;13.70;99.90;;;13.91;100.00;100735.78;5076559;28;20416;-68
2023/01/02 02:33:48;;;;;;;22.23;12.38;;;13.60;99.90;;;13.90;100.00;100736.69;5094920;28;20063;-68
2023/01/02 02:36:28;;;;;;;21.02;12.73;;;13.60;99.90;;;13.92;100.00;100740.19;5094643;28;20040;-69
2023/01/02 02:39:08;;;;;;;20.10;12.77;;;13.70;99.90;;;13.94;100.00;100735.72;5094244;28;20044;-69
2023/01/02 02:41:48;;;;;;;19.55;13.65;;;13.70;99.90;;;14.02;100.00;100724.91;5094390;28;20046;-68
2023/01/02 02:44:30;;;;;;;21.80;13.48;;;13.70;99.90;;;13.96;100.00;100735.69;5076260;28;20051;-68
2023/01/02 02:47:06;;;;;;;21.77;14.02;;;13.70;99.90;;;13.80;100.00;100726.28;5094092;28;20101;-68
2023/01/02 02:49:48;;;;;;;21.13;14.10;;;13.60;99.90;;;13.88;100.00;100716.38;5094340;28;20040;-69
2023/01/02 02:52:23;;;;;;;20.20;14.60;;;13.60;99.90;;;13.86;100.00;100713.72;5093980;28;20097;-69
2023/01/02 02:55:00;;;;;;;23.05;13.65;;;13.60;99.90;;;13.91;100.00;100716.28;5094734;28;20051;-68
2023/01/02 02:57:30;;;;;;;22.65;13.88;;;13.60;99.90;;;13.87;100.00;100696.88;5075683;28;20143;-69
2023/01/02 02:59:59;;;;;;;22.77;13.93;;;13.60;99.90;;;13.92;100.00;100697.63;5093956;28;20040;-68
2023/01/02 03:02:28;;;;;;;24.20;13.38;;;13.60;99.90;;;13.90;100.00;100698.59;5093668;28;20051;-69
2023/01/02 03:05:02;;;;;;;24.05;13.05;;;13.60;99.90;;;13.96;100.00;100707.31;5093826;28;20044;-68
2023/01/02 03:07:39;;;;;;;20.58;13.18;;;13.70;99.90;;;13.99;100.00;100719.69;5094057;28;20524;-68
2023/01/02 03:10:21;;;;;;;20.67;11.93;;;13.70;99.90;;;13.99;100.00;100709.03;5094007;28;20076;-68
2023/01/02 03:13:00;;;;;;;22.70;11.20;;;13.70;99.90;;;13.92;100.00;100712.72;5093702;28;20044;-69
2023/01/02 03:15:36;;;;;;;20.30;10.98;;;13.60;99.90;;;13.94;100.00;100716.22;5093661;28;20044;-68
2023/01/02 03:18:17;;;;;;;22.30;10.98;;;13.60;99.90;;;13.85;100.00;100701.34;5093565;28;20097;-68
2023/01/02 03:20:58;;;;;;;19.92;10.95;;;13.60;99.90;;;13.73;100.00;100696.28;5093404;28;20127;-69
2023/01/02 03:23:30;;;;;;;21.83;10.98;;;13.50;99.90;;;13.80;100.00;100702.34;5093734;28;20105;-68
2023/01/02 03:25:59;;;;;;;23.75;11.90;;;13.50;99.90;;;13.75;100.00;100712.19;5093476;28;20054;-68
2023/01/02 03:28:27;;;;;;;23.23;10.98;;;13.50;99.90;;;13.74;100.00;100710.44;5093373;28;20055;-68
2023/01/02 03:31:00;;;;;;;23.50;11.45;;;13.40;99.90;;;13.76;100.00;100713.94;5093543;28;20078;-68
2023/01/02 03:33:36;;;;;;;20.65;10.77;;;13.50;99.90;;;13.71;100.00;100710.50;5093884;28;20430;-69
2023/01/02 03:36:10;;;;;;;19.35;11.20;;;13.40;99.90;;;13.74;100.00;100711.31;5093338;28;20036;-68
2023/01/02 03:38:44;;;;;;;22.67;11.52;;;13.40;99.90;;;13.71;100.00;100707.81;5093275;28;20123;-69
2023/01/02 03:41:19;;;;;;;21.02;11.70;;;13.40;99.90;;;13.84;100.00;100718.19;5093414;28;20114;-68
2023/01/02 03:43:52;;;;;;;21.35;11.25;;;13.50;99.90;;;13.83;100.00;100719.09;5075320;28;20486;-68
2023/01/02 03:46:33;;;;;;;21.77;11.30;;;13.50;99.90;;;13.84;100.00;100720.84;5093426;28;20467;-68
2023/01/02 03:49:08;;;;;;;18.65;11.60;;;13.50;99.90;;;13.80;100.00;100728.94;5075574;28;20095;-69
2023/01/02 03:51:36;;;;;;;17.27;10.57;;;13.50;99.90;;;13.44;100.00;100658.75;5074908;28;20109;-71
2023/01/02 03:54:06;;;;;;;21.85;11.70;;;13.50;99.90;;;13.85;100.00;100737.69;5093355;28;20047;-73
2023/01/02 03:56:44;;;;;;;21.98;10.88;;;13.50;99.90;;;13.78;100.00;100736.91;5075336;28;20055;-73
2023/01/02 03:59:18;;;;;;;16.27;10.80;;;13.40;99.90;;;13.56;100.00;100687.75;5092162;28;20060;-73
2023/01/02 04:01:54;;;;;;;21.80;11.63;;;13.40;99.90;;;13.79;100.00;100735.16;5093467;28;20044;-73
2023/01/02 04:04:35;;;;;;;24.33;11.98;;;13.50;99.90;;;13.76;100.00;100727.25;5093076;28;20040;-73
2023/01/02 04:07:04;;;;;;;;;;;13.50;99.90;;;13.77;100.00;100735.19;5093495;28;20044;-73
2023/01/02 04:09:35;;;;;;;21.42;12.13;;;13.50;99.90;;;13.72;100.00;100745.03;5093331;28;19973;-73
2023/01/02 04:12:10;;;;;;;19.20;12.32;;;13.40;99.90;;;13.63;100.00;100753.16;5093261;28;20059;-73
2023/01/02 04:14:42;;;;;;;25.15;14.88;;;13.30;99.90;;;13.04;100.00;100677.22;5092898;28;20067;-73
2023/01/02 04:17:14;;;;;;;20.23;15.70;;;13.30;99.90;;;13.32;100.00;100762.59;5092922;28;20040;-73
2023/01/02 04:19:49;;;;;;;9.65;8.23;;;13.10;99.90;;;13.07;100.00;100772.75;5093214;28;20059;-74
2023/01/02 04:22:24;;;;;;;8.50;7.70;;;12.90;99.90;;;13.02;100.00;100793.16;5092720;28;20044;-75
2023/01/02 04:24:57;;;;;;;7.25;6.45;;;12.70;99.90;;;12.69;100.00;100793.66;5096873;28;20063;-73
2023/01/02 04:27:32;;;;;;;7.07;6.45;;;12.50;99.90;;;12.41;100.00;100800.22;5097107;28;20444;-73
2023/01/02 04:30:01;;;;;;;7.28;6.57;;;12.20;99.90;;;12.34;100.00;100807.41;5097019;28;20505;-73
2023/01/02 04:32:34;;;;;;;6.05;5.55;;;12.10;99.90;;;11.98;100.00;100809.63;5096672;28;20050;-72
2023/01/02 04:35:10;;;;;;;6.50;5.90;;;11.80;99.90;;;11.67;100.00;100809.91;5096692;28;20452;-72
2023/01/02 04:37:41;;;;;;;5.85;5.35;;;11.50;99.90;;;11.57;100.00;100821.50;5096615;28;20050;-72
2023/01/02 04:40:17;;;;;;;6.00;5.50;;;11.40;99.90;;;11.55;100.00;100831.22;5096568;28;20036;-74
2023/01/02 04:42:45;;;;;;;6.82;5.88;;;11.30;99.90;;;11.44;100.00;100821.63;5096436;28;20109;-73
2023/01/02 04:45:15;;;;;;;14.63;5.80;;;11.30;99.90;;;11.43;100.00;100830.44;5078513;28;20397;-74
2023/01/02 04:47:44;;;;;;;6.13;5.53;;;11.30;99.90;;;11.50;100.00;100830.38;5096367;28;20044;-73
2023/01/02 04:50:14;;;;;;;5.82;5.32;;;11.30;99.90;;;11.44;100.00;100843.66;5096360;28;20044;-73
2023/01/02 04:52:42;;;;;;;8.63;5.88;;;11.20;99.90;;;11.47;100.00;100859.53;5096307;28;20127;-73
2023/01/02 04:55:11;;;;;;;5.53;5.03;;;11.20;99.90;;;11.51;100.00;100855.97;5096287;28;20036;-73
2023/01/02 04:57:39;;;;;;;5.80;5.30;;;11.30;99.90;;;11.61;100.00;100862.94;5078042;28;20102;-72
2023/01/02 05:00:10;;;;;;;6.57;5.88;;;11.30;99.90;;;11.63;100.00;100861.16;5095127;28;20043;-73
2023/01/02 05:02:39;;;;;;;6.35;5.75;;;11.40;99.90;;;11.80;100.00;100874.28;5096119;28;20036;-73
2023/01/02 05:05:09;;;;;;;8.52;5.90;;;11.50;99.90;;;11.74;100.00;100893.78;5096108;28;20044;-72
2023/01/02 05:07:39;;;;;;;6.30;5.70;;;11.50;99.90;;;11.70;100.00;100897.34;5096000;28;20126;-73
2023/01/02 05:10:09;;;;;;;6.95;6.22;;;11.50;99.90;;;11.71;100.00;100912.34;5096376;28;20059;-73
2023/01/02 05:12:38;;;;;;;7.78;7.00;;;11.50;99.90;;;11.15;100.00;100887.16;5096170;28;20558;-73
2023/01/02 05:15:10;;;;;;;8.45;7.65;;;11.40;99.90;;;11.59;100.00;100900.94;5096172;28;20048;-72
2023/01/02 05:17:40;;;;;;;8.93;7.97;;;11.40;99.90;;;11.61;100.00;100894.72;5095934;28;20071;-73
2023/01/02 05:20:12;;;;;;;8.10;7.25;;;11.50;99.90;;;11.45;100.00;100901.06;5096063;28;20544;-73
2023/01/02 05:25:32;;;;;;;8.23;6.95;;;11.40;99.90;;;11.65;100.00;100933.59;5095691;28;20044;-73
2023/01/02 05:28:02;;;;;;;11.38;7.20;;;11.40;99.90;;;11.63;100.00;100940.63;5095975;28;20047;-73
2023/01/02 05:30:30;;;;;;;9.75;7.88;;;11.40;99.90;;;11.57;100.00;100945.09;5095612;28;20043;-72
2023/01/02 05:32:59;;;;;;;10.80;8.55;;;11.40;99.90;;;11.56;100.00;100948.63;5095543;28;20043;-73
2023/01/02 05:35:27;;;;;;;11.68;8.63;;;11.40;99.90;;;11.58;100.00;100966.28;5095926;28;20047;-73
2023/01/02 05:38:01;;;;;;;16.63;10.85;;;11.40;99.90;;;11.33;100.00;100972.63;5095737;28;20050;-72
2023/01/02 05:40:30;;;;;;;15.73;9.77;;;11.20;99.90;;;11.35;100.00;100965.56;5095405;28;20040;-73
2023/01/02 05:42:58;;;;;;;14.52;10.07;;;11.20;99.90;;;11.34;100.00;100970.88;5095275;28;20044;-73
2023/01/02 05:45:27;;;;;;;12.75;10.13;;;11.20;99.90;;;11.39;100.00;100990.25;5095282;28;20085;-73
2023/01/02 05:47:55;;;;;;;12.02;7.65;;;11.20;99.90;;;11.20;100.00;100993.88;5095278;28;20043;-73
2023/01/02 05:50:24;;;;;;;12.73;7.13;;;11.00;99.90;;;10.91;100.00;100954.34;5077068;28;20097;-73
2023/01/02 05:52:52;;;;;;;10.95;6.95;;;11.00;99.90;;;10.99;100.00;101008.09;5077274;28;20048;-73
2023/01/02 05:55:22;;;;;;;9.77;6.45;;;10.80;99.90;;;11.02;100.00;101018.66;5095067;28;20383;-73
2023/01/02 05:57:57;;;;;;;13.73;6.33;;;10.80;99.90;;;11.05;100.00;101017.78;5095328;28;20040;-73
2023/01/02 06:00:25;;;;;;;14.50;5.90;;;10.80;99.90;;;10.72;100.00;100998.47;5077220;28;20048;-74
2023/01/02 06:02:54;;;;;;;11.68;5.00;;;10.70;99.90;;;10.79;100.00;101020.53;5094814;28;20089;-72
2023/01/02 06:05:22;;;;;;;11.00;5.10;;;10.60;99.90;;;10.93;100.00;101028.41;5094808;28;20093;-73
2023/01/02 06:07:50;;;;;;;9.60;5.03;;;10.70;99.90;;;10.92;100.00;101024.03;5094880;28;20117;-75
2023/01/02 06:10:19;;;;;;;12.02;5.45;;;10.70;99.90;;;10.90;100.00;101030.19;5095375;28;20131;-73
2023/01/02 06:12:49;;;;;;;17.58;5.35;;;10.70;99.90;;;10.98;100.00;101031.91;5094735;28;20486;-73
2023/01/02 06:15:17;;;;;;;13.17;4.87;;;10.70;99.90;;;10.88;100.00;101031.94;5094707;28;20114;-73
2023/01/02 06:17:45;;;;;;;16.88;5.45;;;10.70;99.90;;;10.98;100.00;101037.19;5095195;28;20048;-73
2023/01/02 06:20:14;;;;;;;13.90;5.30;;;10.80;99.90;;;10.99;100.00;101018.69;5094871;28;20063;-72
2023/01/02 06:22:43;;;;;;;19.15;6.15;;;10.90;99.90;;;11.22;100.00;101058.31;5094678;28;20510;-72
2023/01/02 06:25:12;;;;;;;11.88;6.15;;;11.00;99.90;;;11.19;100.00;101050.38;5094552;28;20071;-72
2023/01/02 06:27:40;;;;;;;12.15;6.13;;;11.10;99.90;;;10.79;100.00;100994.06;5094506;28;20036;-72
2023/01/02 06:30:11;;;;;;;17.75;6.85;;;11.00;99.90;;;11.31;100.00;101063.56;5094938;28;20097;-72
2023/01/02 06:32:39;;;;;;;;;;;11.10;99.90;;;11.41;100.00;101076.75;5094785;28;20122;-72
2023/01/02 06:35:08;;;;;;;16.38;7.03;;;11.20;99.90;;;11.48;100.00;101070.53;5094589;28;20292;-72
2023/01/02 06:37:36;;;;;;;10.95;6.38;;;11.30;99.90;;;11.44;100.00;101089.13;5094548;28;20044;-72
2023/01/02 06:40:06;;;;;;;11.55;7.20;;;11.20;99.90;;;11.50;100.00;101081.13;5094267;28;20059;-72
2023/01/02 06:42:35;;;;;;;9.73;6.90;;;11.30;99.90;;;11.59;100.00;101107.59;5093905;28;20485;-72
2023/01/02 06:45:04;;;;;;;14.55;7.93;;;11.40;99.90;;;11.69;100.00;101099.59;5094066;28;20310;-72
2023/01/02 06:47:33;;;;;;;8.85;6.68;;;11.40;99.90;;;11.55;100.00;101087.28;5093979;28;20071;-72
2023/01/02 06:50:02;;;;;;;7.78;6.57;;;11.50;99.90;;;11.54;100.00;101104.06;5093965;28;20113;-72
2023/01/02 06:52:30;;;;;;;12.63;7.55;;;11.40;99.90;;;11.42;100.00;101091.75;5076094;28;20040;-72
2023/01/02 06:54:58;;;;;;;10.05;6.93;;;11.40;99.90;;;11.47;100.00;101118.22;5093885;28;20093;-72
2023/01/02 06:57:30;;;;;;;12.48;7.97;;;11.20;99.90;;;11.42;100.00;101114.72;5075912;28;20076;-72
2023/01/02 06:59:58;;;;;;;9.48;7.00;;;11.20;99.90;;;11.51;100.00;101126.16;5093778;28;20036;-72
2023/01/02 07:02:27;;;;;;;11.90;7.03;;;11.30;99.90;;;11.50;100.00;101132.34;5093660;28;20058;-72
2023/01/02 07:04:56;;;;;;;8.73;6.78;;;11.30;99.90;;;11.57;100.00;101142.03;5093895;28;20032;-74
2023/01/02 07:07:25;;;;;;;11.13;6.93;;;11.40;99.90;;;11.50;100.00;101153.53;5093761;28;20032;-72
2023/01/02 07:09:53;;;;;;;8.68;5.68;;;11.30;99.90;;;11.55;100.00;101162.34;5075686;28;20478;-72
2023/01/02 07:12:21;;;;;;;9.35;6.03;;;11.30;99.90;;;11.60;100.00;101167.63;5093634;28;20032;-72
2023/01/02 07:14:50;;;;;;;7.93;5.78;;;11.40;99.90;;;11.70;100.00;101175.56;5093919;28;20047;-72
2023/01/02 07:17:18;;;;;;;7.82;5.50;;;11.50;99.90;;;11.69;100.00;101168.50;5094002;28;20036;-72
2023/01/02 07:19:47;;;;;;;6.78;5.70;;;11.50;99.90;;;11.74;100.00;101181.72;5093371;28;20521;-73
2023/01/02 07:22:23;;;;;;;8.82;5.47;;;11.50;99.90;;;11.84;100.00;101179.94;5075530;28;20097;-72
2023/01/02 07:24:51;;;;;;;5.97;5.23;;;11.60;99.90;;;11.72;100.00;101192.34;5093700;28;20067;-73
2023/01/02 07:27:19;;;;;;;6.63;4.90;;;11.60;99.90;;;11.74;100.00;101189.69;5093416;28;20071;-73
2023/01/02 07:29:48;;;;;;;5.25;4.15;;;11.60;99.90;;;11.65;100.00;101197.66;5093403;28;20044;-73
2023/01/02 07:32:16;;;;;;;6.13;4.25;;;11.50;99.90;;;11.77;100.00;101211.75;5093325;28;20130;-74
2023/01/02 07:34:52;;;;;;;8.18;4.32;;;11.60;99.90;;;11.69;99.75;101215.34;5093617;28;20098;-73
2023/01/02 07:37:22;;;;;;;7.63;3.90;;;11.50;99.90;;;11.65;99.41;101225.03;5093294;28;20044;-74
2023/01/02 07:39:50;;;;;;;8.30;4.20;;;11.50;99.90;;;11.66;99.38;101229.47;5075386;28;20489;-71
2023/01/02 07:42:19;;;;;;;8.57;4.90;;;11.50;99.90;;;11.67;99.39;101228.56;5093206;28;20064;-75
2023/01/02 07:44:47;;;;;;;8.65;4.70;;;11.40;99.90;;;11.57;99.21;101241.81;5093348;28;20071;-74
2023/01/02 07:47:15;;;;;;;12.93;5.22;;;11.40;99.90;;;11.57;99.60;101247.13;5093191;28;20039;-73
2023/01/02 07:49:44;;;;;;;6.40;4.57;;;11.40;99.90;;;11.56;99.17;101259.47;5093144;28;20036;-73
2023/01/02 07:52:12;;;;;;;10.30;4.72;;;11.30;99.90;;;10.89;99.07;101147.53;5075261;28;20051;-75
2023/01/02 07:54:42;;;;;;;10.88;4.72;;;11.30;99.90;;;11.64;99.08;101275.34;5092881;28;20062;-74
2023/01/02 07:57:10;;;;;;;9.47;4.40;;;11.30;99.90;;;11.71;98.55;101279.81;5092067;28;20052;-74
2023/01/02 07:59:39;;;;;;;8.20;3.80;;;11.40;99.90;;;11.65;98.30;101280.69;5096943;28;20285;-73
2023/01/02 08:02:10;;;;;;;11.32;4.75;;;11.40;99.90;;;11.68;97.98;101290.41;5097566;28;20044;-76
2023/01/02 08:04:38;;;;;;;7.13;3.92;;;11.40;99.90;;;11.63;97.90;101293.00;5097151;28;20409;-77
2023/01/02 08:07:07;;;;;;;9.45;3.90;;;11.40;99.90;;;11.61;97.67;101284.19;5097127;28;20123;-74
2023/01/02 08:09:35;;;;;;;10.20;4.22;;;11.40;99.90;;;11.51;96.97;101269.22;5078985;28;20502;-76
2023/01/02 08:12:06;;;;;;;9.52;4.32;;;11.40;99.90;;;11.64;96.47;101289.50;5097048;28;20486;-74
2023/01/02 08:14:34;;;;;;;12.00;4.40;;;11.40;99.90;;;11.62;95.90;101299.22;5097322;28;20048;-77
2023/01/02 08:17:02;;;;;;;8.93;4.00;;;11.40;99.90;;;11.67;95.52;101307.19;5097157;28;20085;-80
2023/01/02 08:19:31;;;;;;;9.43;4.03;;;11.40;99.90;;;11.71;95.41;101309.81;5096879;28;20458;-74
2023/01/02 08:21:59;;;;;;;6.30;3.97;;;11.40;99.90;;;11.72;95.29;101308.06;5096819;28;20093;-73
2023/01/02 08:24:28;;;;;;;8.15;3.72;;;11.30;99.90;;;11.77;94.76;101320.41;5096946;28;20468;-73
2023/01/02 08:26:56;;;;;;;15.15;4.20;;;11.40;99.90;;;11.83;94.45;101327.47;5097036;28;20036;-74
2023/01/02 08:29:26;;;;;;;8.95;4.32;;;11.50;99.90;;;11.87;94.23;101336.28;5097281;28;20044;-78
2023/01/02 08:31:54;;;;;;;10.73;4.55;;;11.50;99.90;;;11.63;93.71;101314.22;5096858;28;20122;-82
2023/01/02 08:34:22;;;;;;;10.00;4.05;;;11.50;99.90;;;11.80;93.88;101346.03;5096651;28;20458;-70
2023/01/02 08:36:52;;;;;;;9.43;3.85;;;11.50;99.90;;;11.69;93.16;101343.38;5096612;28;20032;-71
2023/01/02 08:39:20;;;;;;;11.63;4.00;;;11.40;99.90;;;11.75;93.34;101351.34;5096590;28;20093;-70
2023/01/02 08:41:48;;;;;;;12.40;4.45;;;11.40;99.90;;;11.70;92.97;101350.47;5096511;28;20505;-72
2023/01/02 08:44:17;;;;;;;11.35;3.90;;;11.40;99.90;;;11.72;92.68;101353.09;5096373;28;20495;-74
2023/01/02 08:46:47;;;;;;;13.50;4.40;;;11.40;99.90;;;11.70;92.86;101361.06;5096648;28;20079;-71
2023/01/02 08:49:15;;;;;;;11.00;4.03;;;11.40;99.90;;;11.69;92.65;101369.03;5078450;28;20094;-70
2023/01/02 08:51:44;;;;;;;9.80;4.30;;;11.50;99.90;;;11.77;93.01;101365.47;5096181;28;20286;-69
2023/01/02 08:54:12;;;;;;;7.70;4.18;;;11.40;99.90;;;11.65;92.37;101354.88;5096473;28;20044;-71
2023/01/02 08:56:41;;;;;;;10.43;4.30;;;11.50;99.90;;;11.40;92.76;101299.25;5096165;28;20474;-72
2023/01/02 08:59:12;;;;;;;13.73;4.55;;;11.50;99.90;;;11.68;92.75;101351.34;5096188;28;20447;-72
2023/01/02 09:01:41;;;;;;;9.40;4.95;;;11.40;99.90;;;11.85;92.84;101369.84;5078172;28;20087;-73
2023/01/02 09:04:11;;;;;;;10.45;4.60;;;11.50;99.90;;;11.89;92.68;101384.88;5096218;28;20036;-71
2023/01/02 09:06:41;;;;;;;11.07;4.60;;;11.60;99.90;;;11.74;92.76;101389.34;5095999;28;20547;-69
2023/01/02 09:09:12;;;;;;;13.93;5.45;;;11.50;99.90;;;11.70;92.76;101392.88;5096008;28;20427;-75
2023/01/02 09:11:45;;;;;;;10.40;4.32;;;11.50;99.90;;;11.71;93.16;101394.63;5095963;28;20535;-68
2023/01/02 09:14:14;;;;;;;11.70;4.53;;;11.40;99.90;;;11.81;92.75;101410.53;5096218;28;20082;-69
2023/01/02 09:16:42;;;;;;;9.18;3.88;;;11.50;99.90;;;11.34;92.67;101323.94;5095096;28;20047;-69
2023/01/02 09:19:12;;;;;;;12.75;4.32;;;11.50;99.90;;;11.74;92.47;101402.59;5095795;28;20051;-74
2023/01/02 09:21:41;;;;;;;15.20;4.82;;;11.50;99.90;;;11.91;92.66;101414.91;5096062;28;20067;-73
2023/01/02 09:24:10;;;;;;;12.80;4.35;;;11.50;99.90;;;11.90;92.08;101410.50;5095768;28;20497;-70
2023/01/02 09:26:40;;;;;;;13.60;4.72;;;11.50;99.90;;;11.59;92.33;101378.69;5095598;28;20044;-71
2023/01/02 09:29:09;;;;;;;;;;;11.50;99.90;;;11.82;92.07;101401.69;5095903;28;20110;-71
2023/01/02 09:31:38;;;;;;;9.43;4.50;;;11.50;99.90;;;11.84;92.38;101391.97;5095437;28;20031;-71
2023/01/02 09:34:07;;;;;;;8.60;4.72;;;11.50;99.90;;;11.89;92.12;101382.22;5095946;28;20063;-74
2023/01/02 09:36:37;;;;;;;13.90;4.65;;;11.60;99.90;;;11.94;92.04;101396.38;5095451;28;20036;-69
2023/01/02 09:39:06;;;;;;;12.23;4.80;;;11.60;99.90;;;11.88;91.52;101412.28;5095593;28;20066;-72
2023/01/02 09:41:37;;;;;;;10.48;4.68;;;11.60;99.90;;;11.71;91.92;101365.47;5095337;28;20039;-73
2023/01/02 09:44:14;;;;;;;9.50;4.32;;;11.60;99.90;;;12.01;91.94;101411.38;5095749;28;20097;-72
2023/01/02 09:46:49;;;;;;;14.27;5.05;;;11.70;99.90;;;11.85;92.02;101375.16;5095212;28;20036;-72
2023/01/02 09:49:22;;;;;;;9.27;4.57;;;11.70;99.90;;;12.08;91.81;101431.72;5095854;28;20059;-75
2023/01/02 09:51:52;;;;;;;10.95;4.47;;;11.80;99.90;;;12.06;92.02;101434.34;5095486;28;20044;-69
2023/01/02 09:54:26;;;;;;;12.65;4.22;;;11.80;99.90;;;12.16;91.87;101440.50;5095295;28;20067;-75
2023/01/02 09:57:19;;;;;;;13.95;4.63;;;11.80;99.90;;;12.33;92.40;101441.38;5095234;28;20040;-73
2023/01/02 09:59:54;;;;;;;11.98;5.03;;;12.00;99.90;;;11.56;91.88;101336.31;5095467;28;20055;-71
2023/01/02 10:02:42;;;;;;;8.65;4.25;;;12.10;99.90;;;12.40;91.62;101467.00;5094887;28;20105;-73
2023/01/02 10:05:58;;;;;;;8.68;4.53;;;12.10;99.90;;;12.39;90.97;101479.38;5095103;28;20075;-77
2023/01/02 10:08:37;;;;;;;9.30;4.50;;;12.10;99.90;;;12.27;91.16;101452.88;5094724;28;20048;-73
2023/01/02 10:11:21;;;;;;;12.10;4.18;;;12.10;99.90;;;12.39;91.18;101459.91;5095105;28;20040;-71
2023/01/02 10:13:56;;;;;;;10.13;4.10;;;12.10;99.90;;;12.43;90.96;101459.91;5094778;28;20068;-68
2023/01/02 10:16:48;;;;;;;10.43;4.35;;;12.10;99.90;;;12.43;91.18;101453.72;5076221;28;20036;-71
2023/01/02 10:19:22;;;;;;;9.07;4.20;;;12.10;99.90;;;12.26;91.00;101424.59;5094958;28;20558;-71
2023/01/02 10:21:58;;;;;;;9.07;4.53;;;12.20;99.90;;;12.45;91.12;101436.91;5094323;28;20474;-71
2023/01/02 10:24:40;;;;;;;10.40;4.05;;;12.20;99.90;;;12.39;90.24;101451.97;5094731;28;20128;-70